createdAt,value
2023-04-29T00:02:18.237Z,11.13
2023-04-29T00:07:22.464Z,10.65
2023-04-29T00:12:28.254Z,10.30
2023-04-29T00:17:34.572Z,9.57
2023-04-29T00:22:37.740Z,9.90
2023-04-29T00:27:42.606Z,9.65
2023-04-29T00:32:46.799Z,9.25
2023-04-29T00:37:50.536Z,8.88
2023-04-29T00:42:55.066Z,9.25
2023-04-29T00:47:58.633Z,8.98
2023-04-29T00:53:02.342Z,8.30
2023-04-29T00:58:07.572Z,8.07
2023-04-29T01:03:11.998Z,8.15
2023-04-29T01:08:30.673Z,7.80
2023-04-29T01:13:44.541Z,8.00
2023-04-29T01:24:24.631Z,8.63
2023-04-29T01:29:35.219Z,8.88
2023-04-29T01:34:47.517Z,8.63
2023-04-29T01:40:01.953Z,9.45
2023-04-29T01:45:09.796Z,9.00
2023-04-29T01:50:13.050Z,9.40
2023-04-29T01:55:17.828Z,8.90
2023-04-29T02:00:22.677Z,10.07
2023-04-29T02:05:26.992Z,9.00
2023-04-29T02:10:31.579Z,10.30
2023-04-29T02:15:37.636Z,10.57
2023-04-29T02:20:41.141Z,10.77
2023-04-29T02:25:45.731Z,10.40
2023-04-29T02:30:49.013Z,10.30
2023-04-29T02:35:52.290Z,11.77
2023-04-29T02:40:57.335Z,10.07
2023-04-29T02:46:00.778Z,10.80
2023-04-29T02:51:04.417Z,11.45
2023-04-29T02:56:09.230Z,11.00
2023-04-29T03:01:12.612Z,11.13
2023-04-29T03:06:16.097Z,11.38
2023-04-29T03:11:21.015Z,10.13
2023-04-29T03:16:24.611Z,10.93
2023-04-29T03:21:28.108Z,10.43
2023-04-29T03:26:32.792Z,12.23
2023-04-29T03:31:36.416Z,11.73
2023-04-29T03:36:39.608Z,12.63
2023-04-29T03:41:44.768Z,12.93
2023-04-29T03:46:47.972Z,13.50
2023-04-29T03:51:51.628Z,13.18
2023-04-29T03:56:56.552Z,12.95
2023-04-29T04:01:59.769Z,13.40
2023-04-29T04:07:04.049Z,14.00
2023-04-29T04:12:09.266Z,13.48
2023-04-29T04:17:12.495Z,13.38
2023-04-29T04:22:17.391Z,14.02
2023-04-29T04:27:22.168Z,14.48
2023-04-29T04:32:25.380Z,13.82
2023-04-29T04:37:28.771Z,14.95
2023-04-29T04:42:33.250Z,14.23
2023-04-29T04:47:36.569Z,13.82
2023-04-29T04:52:39.833Z,15.15
2023-04-29T04:57:44.820Z,14.45
2023-04-29T05:02:48.237Z,13.60
2023-04-29T05:07:51.616Z,13.20
2023-04-29T05:12:56.131Z,13.25
2023-04-29T05:17:59.413Z,11.85
2023-04-29T05:23:02.872Z,11.88
2023-04-29T05:28:09.060Z,8.90
2023-04-29T05:33:12.577Z,10.23
2023-04-29T05:38:15.882Z,8.77
2023-04-29T05:43:20.498Z,8.73
2023-04-29T05:48:25.106Z,9.13
2023-04-29T05:53:28.483Z,9.70
2023-04-29T05:58:38.471Z,10.02
2023-04-29T06:03:43.209Z,10.27
2023-04-29T06:08:46.862Z,10.15
2023-04-29T06:13:51.774Z,10.88
2023-04-29T06:18:56.210Z,9.75
2023-04-29T06:24:02.549Z,10.38
2023-04-29T06:29:07.153Z,9.82
2023-04-29T06:34:10.855Z,9.40
2023-04-29T06:39:14.717Z,9.57
2023-04-29T06:44:20.257Z,8.15
2023-04-29T06:49:23.871Z,7.97
2023-04-29T06:54:28.839Z,7.93
2023-04-29T06:59:33.807Z,8.30
2023-04-29T07:04:37.760Z,7.20
2023-04-29T07:09:41.144Z,7.03
2023-04-29T07:14:45.904Z,7.20
2023-04-29T07:19:49.033Z,6.20
2023-04-29T07:24:55.220Z,6.45
2023-04-29T07:30:01.359Z,6.88
2023-04-29T07:35:06.120Z,6.40
2023-04-29T07:40:10.342Z,6.30
2023-04-29T07:45:15.251Z,6.40
2023-04-29T07:50:18.465Z,6.82
2023-04-29T07:55:21.997Z,7.03
2023-04-29T08:00:41.742Z,7.18
2023-04-29T08:05:45.293Z,7.85
2023-04-29T08:10:48.527Z,8.05
2023-04-29T08:15:53.833Z,8.98
2023-04-29T08:20:57.290Z,9.32
2023-04-29T08:26:00.523Z,11.10
2023-04-29T08:31:07.204Z,10.93
2023-04-29T08:36:10.736Z,10.77
2023-04-29T08:41:25.545Z,10.07
2023-04-29T08:46:30.683Z,9.02
2023-04-29T08:51:34.789Z,9.50
2023-04-29T08:56:50.676Z,7.82
2023-04-29T09:01:55.683Z,8.32
2023-04-29T09:06:59.906Z,7.53
2023-04-29T09:12:03.171Z,7.05
2023-04-29T09:17:46.027Z,6.55
2023-04-29T09:22:50.195Z,7.18
2023-04-29T09:27:53.674Z,7.93
2023-04-29T09:33:31.602Z,7.60
2023-04-29T09:38:35.139Z,8.15
2023-04-29T09:43:38.906Z,8.30
2023-04-29T09:48:43.580Z,7.10
2023-04-29T09:53:46.990Z,7.45
2023-04-29T09:58:50.202Z,5.88
2023-04-29T10:03:56.554Z,5.53
2023-04-29T10:09:00.881Z,5.80
2023-04-29T10:14:07.146Z,6.13
2023-04-29T10:19:14.008Z,5.05
2023-04-29T10:24:19.319Z,4.72
2023-04-29T10:29:23.796Z,4.63
2023-04-29T10:34:29.976Z,5.68
2023-04-29T10:39:47.557Z,6.28
2023-04-29T10:45:19.828Z,5.50
2023-04-29T10:50:24.653Z,5.20
2023-04-29T10:55:27.896Z,6.03
2023-04-29T11:00:32.922Z,6.88
2023-04-29T11:05:38.780Z,8.52
2023-04-29T11:10:43.097Z,8.20
2023-04-29T11:15:46.701Z,9.48
2023-04-29T11:21:17.238Z,9.60
2023-04-29T11:26:21.994Z,9.48
2023-04-29T11:31:29.561Z,10.30
2023-04-29T11:36:35.168Z,10.55
2023-04-29T11:41:39.811Z,10.05
2023-04-29T11:46:43.373Z,10.88
2023-04-29T11:51:48.298Z,9.80
2023-04-29T11:56:51.500Z,10.02
2023-04-29T12:01:54.772Z,10.10
2023-04-29T12:07:23.677Z,9.65
2023-04-29T12:12:31.751Z,9.75
2023-04-29T12:17:36.593Z,9.50
2023-04-29T12:22:47.013Z,9.00
2023-04-29T12:27:50.177Z,8.80
2023-04-29T12:32:53.700Z,8.32
2023-04-29T12:38:00.834Z,8.00
2023-04-29T12:43:09.334Z,8.73
2023-04-29T12:48:22.077Z,7.95
2023-04-29T12:53:32.604Z,7.53
2023-04-29T12:58:36.051Z,7.07
2023-04-29T13:03:40.213Z,6.15
2023-04-29T13:08:44.984Z,6.22
2023-04-29T13:13:48.109Z,6.70
2023-04-29T13:19:05.217Z,6.10
2023-04-29T13:24:20.273Z,6.95
2023-04-29T13:29:24.167Z,6.65
2023-04-29T13:34:27.434Z,6.40
2023-04-29T13:39:32.202Z,6.47
2023-04-29T13:44:51.113Z,6.60
2023-04-29T14:00:37.413Z,7.72
2023-04-29T14:05:39.153Z,6.13
2023-04-29T14:10:43.929Z,5.65
2023-04-29T14:16:03.729Z,5.90
2023-04-29T14:21:07.216Z,5.45
2023-04-29T14:26:27.326Z,6.03
2023-04-29T14:31:35.463Z,5.75
2023-04-29T14:36:38.819Z,5.00
2023-04-29T14:41:43.445Z,5.03
2023-04-29T14:46:46.729Z,5.10
2023-04-29T14:51:50.218Z,4.82
2023-04-29T14:56:54.690Z,4.80
2023-04-29T15:01:59.727Z,4.82
2023-04-29T15:07:03.577Z,5.13
2023-04-29T15:12:08.444Z,5.03
2023-04-29T15:17:11.682Z,5.18
2023-04-29T15:22:14.829Z,4.78
2023-04-29T15:27:20.277Z,4.53
2023-04-29T15:32:24.708Z,4.40
2023-04-29T15:37:29.238Z,5.10
2023-04-29T15:42:34.126Z,5.45
2023-04-29T15:47:37.285Z,5.00
2023-04-29T15:52:41.842Z,4.85
2023-04-29T15:57:46.498Z,4.90
2023-04-29T16:02:49.879Z,5.05
2023-04-29T16:07:54.565Z,4.40
2023-04-29T16:12:59.096Z,4.72
2023-04-29T16:18:02.715Z,6.97
2023-04-29T16:23:06.578Z,4.78
2023-04-29T16:28:11.211Z,4.70
2023-04-29T16:33:16.422Z,5.03
2023-04-29T16:38:19.966Z,4.38
2023-04-29T16:43:24.530Z,4.13
2023-04-29T16:48:27.913Z,4.63
2023-04-29T16:53:31.454Z,4.05
2023-04-29T16:58:36.678Z,4.45
2023-04-29T17:03:40.734Z,4.30
2023-04-29T17:08:44.723Z,4.85
2023-04-29T17:13:50.649Z,4.32
2023-04-29T17:18:54.437Z,4.22
2023-04-29T17:23:58.931Z,4.63
2023-04-29T17:29:05.258Z,5.40
2023-04-29T17:34:18.461Z,5.18
2023-04-29T17:39:22.341Z,5.65
2023-04-29T17:44:28.200Z,5.90
2023-04-29T17:49:31.487Z,6.07
2023-04-29T17:54:35.022Z,6.28
2023-04-29T17:59:39.556Z,7.47
2023-04-29T18:04:43.178Z,7.15
2023-04-29T18:09:47.661Z,7.00
2023-04-29T18:14:53.025Z,7.22
2023-04-29T18:19:56.551Z,7.88
2023-04-29T18:25:00.370Z,6.60
2023-04-29T18:30:05.703Z,7.15
2023-04-29T18:35:10.743Z,6.65
2023-04-29T18:40:17.874Z,7.10
2023-04-29T18:45:23.573Z,6.38
2023-04-29T18:50:26.807Z,6.95
2023-04-29T18:55:33.584Z,6.53
2023-04-29T19:00:38.491Z,6.45
2023-04-29T19:05:42.107Z,7.25
2023-04-29T19:10:46.538Z,7.28
2023-04-29T19:15:53.637Z,6.85
2023-04-29T19:21:04.922Z,6.88
2023-04-29T19:26:09.669Z,7.25
2023-04-29T19:31:14.704Z,7.22
2023-04-29T19:36:18.145Z,7.97
2023-04-29T19:41:22.173Z,7.80
2023-04-29T19:46:26.726Z,7.78
2023-04-29T19:51:30.001Z,6.90
2023-04-29T19:56:34.004Z,6.40
2023-04-29T20:01:38.877Z,6.32
2023-04-29T20:06:42.229Z,7.85
2023-04-29T20:11:47.637Z,6.15
2023-04-29T20:16:53.336Z,6.30
2023-04-29T20:21:56.750Z,6.18
2023-04-29T20:27:00.182Z,6.38
2023-04-29T20:32:06.157Z,6.32
2023-04-29T20:37:09.784Z,6.15
2023-04-29T20:42:13.082Z,6.40
2023-04-29T20:47:17.688Z,6.00
2023-04-29T20:52:21.447Z,6.90
2023-04-29T20:57:25.979Z,6.25
2023-04-29T21:02:30.711Z,5.93
2023-04-29T21:07:34.050Z,6.38
2023-04-29T21:12:37.211Z,7.70
2023-04-29T21:17:41.878Z,7.20
2023-04-29T21:22:46.816Z,6.60
2023-04-29T21:27:50.149Z,6.40
2023-04-29T21:32:54.890Z,6.43
2023-04-29T21:37:58.715Z,6.65
2023-04-29T21:43:01.998Z,5.93
2023-04-29T21:48:14.624Z,6.13
2023-04-29T21:53:18.280Z,6.80
2023-04-29T21:58:21.399Z,6.43
2023-04-29T22:03:26.240Z,5.70
2023-04-29T22:08:29.650Z,6.07
2023-04-29T22:13:32.810Z,6.80
2023-04-29T22:18:37.706Z,6.32
2023-04-29T22:23:40.816Z,6.30
2023-04-29T22:28:44.064Z,5.80
2023-04-29T22:33:48.782Z,6.80
2023-04-29T22:38:52.080Z,5.53
2023-04-29T22:43:57.572Z,6.50
2023-04-29T22:49:02.334Z,5.67
2023-04-29T22:54:05.670Z,5.67
2023-04-29T22:59:08.825Z,4.90
2023-04-29T23:04:14.874Z,6.10
2023-04-29T23:09:18.209Z,5.40
2023-04-29T23:14:22.495Z,6.03
2023-04-29T23:19:27.248Z,6.37
2023-04-29T23:24:30.605Z,6.87
2023-04-29T23:29:35.172Z,6.87
2023-04-29T23:34:39.899Z,6.73
2023-04-29T23:39:43.102Z,6.57
2023-04-29T23:44:46.509Z,6.33
2023-04-29T23:49:51.102Z,6.27
2023-04-29T23:54:54.359Z,6.40
2023-04-29T23:59:57.592Z,6.20
